sensor_id;sensor_type;location;lat;lon;timestamp;temperature;humidity
20526;DHT22;10421;49.142;9.232;2023-03-29T00:01:58;11.00;70.30
20526;DHT22;10421;49.142;9.232;2023-03-29T00:04:25;10.90;71.00
20526;DHT22;10421;49.142;9.232;2023-03-29T00:06:53;10.80;72.20
20526;DHT22;10421;49.142;9.232;2023-03-29T00:09:20;10.90;71.90
20526;DHT22;10421;49.142;9.232;2023-03-29T00:11:47;10.80;72.30
20526;DHT22;10421;49.142;9.232;2023-03-29T00:14:14;10.90;72.20
20526;DHT22;10421;49.142;9.232;2023-03-29T00:16:41;10.90;72.60
20526;DHT22;10421;49.142;9.232;2023-03-29T00:19:09;10.90;73.40
20526;DHT22;10421;49.142;9.232;2023-03-29T00:21:36;10.80;73.40
20526;DHT22;10421;49.142;9.232;2023-03-29T00:24:04;10.80;73.40
20526;DHT22;10421;49.142;9.232;2023-03-29T00:26:31;10.80;74.10
20526;DHT22;10421;49.142;9.232;2023-03-29T00:28:58;10.80;74.00
20526;DHT22;10421;49.142;9.232;2023-03-29T00:31:24;10.80;73.90
20526;DHT22;10421;49.142;9.232;2023-03-29T00:33:51;10.80;73.80
20526;DHT22;10421;49.142;9.232;2023-03-29T00:36:18;10.70;73.60
20526;DHT22;10421;49.142;9.232;2023-03-29T00:38:46;10.60;73.80
20526;DHT22;10421;49.142;9.232;2023-03-29T00:41:14;10.60;74.40
20526;DHT22;10421;49.142;9.232;2023-03-29T00:43:52;10.50;74.70
20526;DHT22;10421;49.142;9.232;2023-03-29T00:46:20;10.50;75.10
20526;DHT22;10421;49.142;9.232;2023-03-29T00:48:47;10.50;75.50
20526;DHT22;10421;49.142;9.232;2023-03-29T00:51:16;10.50;76.00
20526;DHT22;10421;49.142;9.232;2023-03-29T00:53:47;10.50;76.20
20526;DHT22;10421;49.142;9.232;2023-03-29T00:56:19;10.50;76.60
20526;DHT22;10421;49.142;9.232;2023-03-29T00:58:50;10.50;76.90
20526;DHT22;10421;49.142;9.232;2023-03-29T01:01:23;10.50;77.10
20526;DHT22;10421;49.142;9.232;2023-03-29T01:03:56;10.50;77.20
20526;DHT22;10421;49.142;9.232;2023-03-29T01:06:26;10.50;77.50
20526;DHT22;10421;49.142;9.232;2023-03-29T01:08:57;10.60;77.80
20526;DHT22;10421;49.142;9.232;2023-03-29T01:11:29;10.50;78.30
20526;DHT22;10421;49.142;9.232;2023-03-29T01:14:00;10.50;78.50
20526;DHT22;10421;49.142;9.232;2023-03-29T01:16:28;10.40;78.50
20526;DHT22;10421;49.142;9.232;2023-03-29T01:18:55;10.40;79.00
20526;DHT22;10421;49.142;9.232;2023-03-29T01:21:26;10.40;79.10
20526;DHT22;10421;49.142;9.232;2023-03-29T01:24:17;10.30;79.20
20526;DHT22;10421;49.142;9.232;2023-03-29T01:26:54;10.20;79.70
20526;DHT22;10421;49.142;9.232;2023-03-29T01:29:28;10.20;80.10
20526;DHT22;10421;49.142;9.232;2023-03-29T01:32:01;10.20;80.30
20526;DHT22;10421;49.142;9.232;2023-03-29T01:34:33;10.20;80.50
20526;DHT22;10421;49.142;9.232;2023-03-29T01:37:04;10.20;80.90
20526;DHT22;10421;49.142;9.232;2023-03-29T01:39:34;10.20;81.20
20526;DHT22;10421;49.142;9.232;2023-03-29T01:42:12;10.10;82.20
20526;DHT22;10421;49.142;9.232;2023-03-29T01:44:46;10.00;82.90
20526;DHT22;10421;49.142;9.232;2023-03-29T01:47:19;9.90;84.90
20526;DHT22;10421;49.142;9.232;2023-03-29T01:49:55;9.90;85.40
20526;DHT22;10421;49.142;9.232;2023-03-29T01:52:28;9.90;85.90
20526;DHT22;10421;49.142;9.232;2023-03-29T01:54:59;9.90;86.10
20526;DHT22;10421;49.142;9.232;2023-03-29T01:57:28;9.90;86.60
20526;DHT22;10421;49.142;9.232;2023-03-29T01:59:58;9.90;86.70
20526;DHT22;10421;49.142;9.232;2023-03-29T02:02:26;9.90;87.10
20526;DHT22;10421;49.142;9.232;2023-03-29T02:04:54;9.90;87.20
20526;DHT22;10421;49.142;9.232;2023-03-29T02:07:25;9.90;87.20
20526;DHT22;10421;49.142;9.232;2023-03-29T02:09:55;10.00;86.10
20526;DHT22;10421;49.142;9.232;2023-03-29T02:12:23;10.10;86.00
20526;DHT22;10421;49.142;9.232;2023-03-29T02:14:50;10.30;85.80
20526;DHT22;10421;49.142;9.232;2023-03-29T02:17:19;10.30;85.50
20526;DHT22;10421;49.142;9.232;2023-03-29T02:19:49;10.40;85.70
20526;DHT22;10421;49.142;9.232;2023-03-29T02:22:21;10.40;85.40
20526;DHT22;10421;49.142;9.232;2023-03-29T02:24:52;10.50;85.30
20526;DHT22;10421;49.142;9.232;2023-03-29T02:27:23;10.50;85.10
20526;DHT22;10421;49.142;9.232;2023-03-29T02:29:50;10.40;85.50
20526;DHT22;10421;49.142;9.232;2023-03-29T02:32:20;10.40;85.60
20526;DHT22;10421;49.142;9.232;2023-03-29T02:34:54;10.40;85.50
20526;DHT22;10421;49.142;9.232;2023-03-29T02:37:24;10.40;85.50
20526;DHT22;10421;49.142;9.232;2023-03-29T02:39:55;10.40;85.50
20526;DHT22;10421;49.142;9.232;2023-03-29T02:42:23;10.40;85.80
20526;DHT22;10421;49.142;9.232;2023-03-29T02:44:54;10.30;85.90
20526;DHT22;10421;49.142;9.232;2023-03-29T02:47:27;10.30;86.00
20526;DHT22;10421;49.142;9.232;2023-03-29T02:49:56;10.40;86.30
20526;DHT22;10421;49.142;9.232;2023-03-29T02:52:27;10.40;86.30
20526;DHT22;10421;49.142;9.232;2023-03-29T02:54:58;10.40;86.30
20526;DHT22;10421;49.142;9.232;2023-03-29T02:57:27;10.30;86.50
20526;DHT22;10421;49.142;9.232;2023-03-29T02:59:58;10.20;86.80
20526;DHT22;10421;49.142;9.232;2023-03-29T03:02:26;10.20;87.00
20526;DHT22;10421;49.142;9.232;2023-03-29T03:04:54;10.10;87.10
20526;DHT22;10421;49.142;9.232;2023-03-29T03:07:21;10.10;87.20
20526;DHT22;10421;49.142;9.232;2023-03-29T03:09:49;10.10;87.20
20526;DHT22;10421;49.142;9.232;2023-03-29T03:12:16;10.20;87.20
20526;DHT22;10421;49.142;9.232;2023-03-29T03:14:43;10.30;87.10
20526;DHT22;10421;49.142;9.232;2023-03-29T03:17:09;10.30;86.90
20526;DHT22;10421;49.142;9.232;2023-03-29T03:19:37;10.30;87.00
20526;DHT22;10421;49.142;9.232;2023-03-29T03:22:04;10.20;86.80
20526;DHT22;10421;49.142;9.232;2023-03-29T03:24:32;10.20;87.20
20526;DHT22;10421;49.142;9.232;2023-03-29T03:26:59;10.20;87.00
20526;DHT22;10421;49.142;9.232;2023-03-29T03:29:25;10.30;86.90
20526;DHT22;10421;49.142;9.232;2023-03-29T03:31:53;10.30;86.80
20526;DHT22;10421;49.142;9.232;2023-03-29T03:34:21;10.30;86.80
20526;DHT22;10421;49.142;9.232;2023-03-29T03:36:49;10.40;86.70
20526;DHT22;10421;49.142;9.232;2023-03-29T03:39:16;10.50;86.50
20526;DHT22;10421;49.142;9.232;2023-03-29T03:41:42;10.50;86.10
20526;DHT22;10421;49.142;9.232;2023-03-29T03:44:09;10.60;86.10
20526;DHT22;10421;49.142;9.232;2023-03-29T03:46:36;10.60;85.80
20526;DHT22;10421;49.142;9.232;2023-03-29T03:49:03;10.70;85.70
20526;DHT22;10421;49.142;9.232;2023-03-29T03:51:30;10.80;85.50
20526;DHT22;10421;49.142;9.232;2023-03-29T03:53:58;10.90;85.40
20526;DHT22;10421;49.142;9.232;2023-03-29T03:56:25;11.00;85.40
20526;DHT22;10421;49.142;9.232;2023-03-29T03:58:54;11.00;85.20
20526;DHT22;10421;49.142;9.232;2023-03-29T04:01:21;11.10;85.10
20526;DHT22;10421;49.142;9.232;2023-03-29T04:03:48;11.10;84.90
20526;DHT22;10421;49.142;9.232;2023-03-29T04:06:15;10.90;84.60
20526;DHT22;10421;49.142;9.232;2023-03-29T04:08:42;10.80;85.10
20526;DHT22;10421;49.142;9.232;2023-03-29T04:11:10;10.70;85.30
20526;DHT22;10421;49.142;9.232;2023-03-29T04:13:36;10.70;85.30
20526;DHT22;10421;49.142;9.232;2023-03-29T04:16:04;10.70;85.40
20526;DHT22;10421;49.142;9.232;2023-03-29T04:18:31;10.80;85.50
20526;DHT22;10421;49.142;9.232;2023-03-29T04:20:58;10.80;85.50
20526;DHT22;10421;49.142;9.232;2023-03-29T04:23:25;10.80;85.50
20526;DHT22;10421;49.142;9.232;2023-03-29T04:25:53;10.80;85.40
20526;DHT22;10421;49.142;9.232;2023-03-29T04:28:22;10.80;85.50
20526;DHT22;10421;49.142;9.232;2023-03-29T04:30:48;10.80;85.50
20526;DHT22;10421;49.142;9.232;2023-03-29T04:33:15;10.80;85.40
20526;DHT22;10421;49.142;9.232;2023-03-29T04:35:42;10.80;85.40
20526;DHT22;10421;49.142;9.232;2023-03-29T04:38:09;10.80;85.40
20526;DHT22;10421;49.142;9.232;2023-03-29T04:40:36;10.80;85.40
20526;DHT22;10421;49.142;9.232;2023-03-29T04:43:03;10.80;85.50
20526;DHT22;10421;49.142;9.232;2023-03-29T04:45:32;10.80;85.50
20526;DHT22;10421;49.142;9.232;2023-03-29T04:47:58;10.60;85.40
20526;DHT22;10421;49.142;9.232;2023-03-29T04:50:25;10.60;85.60
20526;DHT22;10421;49.142;9.232;2023-03-29T04:52:52;10.60;85.80
20526;DHT22;10421;49.142;9.232;2023-03-29T04:55:19;10.60;85.70
20526;DHT22;10421;49.142;9.232;2023-03-29T04:57:45;10.70;85.80
20526;DHT22;10421;49.142;9.232;2023-03-29T05:00:13;10.70;85.60
20526;DHT22;10421;49.142;9.232;2023-03-29T05:02:43;10.70;85.50
20526;DHT22;10421;49.142;9.232;2023-03-29T05:05:10;10.70;85.60
20526;DHT22;10421;49.142;9.232;2023-03-29T05:07:37;10.70;85.50
20526;DHT22;10421;49.142;9.232;2023-03-29T05:10:05;10.80;85.50
20526;DHT22;10421;49.142;9.232;2023-03-29T05:12:32;10.80;85.30
20526;DHT22;10421;49.142;9.232;2023-03-29T05:14:59;10.80;85.10
20526;DHT22;10421;49.142;9.232;2023-03-29T05:17:26;10.80;85.00
20526;DHT22;10421;49.142;9.232;2023-03-29T05:19:54;10.80;84.90
20526;DHT22;10421;49.142;9.232;2023-03-29T05:22:21;10.80;84.70
20526;DHT22;10421;49.142;9.232;2023-03-29T05:24:49;10.80;84.40
20526;DHT22;10421;49.142;9.232;2023-03-29T05:27:16;10.70;84.50
20526;DHT22;10421;49.142;9.232;2023-03-29T05:29:43;10.80;84.70
20526;DHT22;10421;49.142;9.232;2023-03-29T05:32:10;10.80;84.40
20526;DHT22;10421;49.142;9.232;2023-03-29T05:34:38;10.80;83.90
20526;DHT22;10421;49.142;9.232;2023-03-29T05:37:06;10.80;83.30
20526;DHT22;10421;49.142;9.232;2023-03-29T05:39:33;10.90;83.40
20526;DHT22;10421;49.142;9.232;2023-03-29T05:42:02;11.00;83.20
20526;DHT22;10421;49.142;9.232;2023-03-29T05:44:29;11.00;82.80
20526;DHT22;10421;49.142;9.232;2023-03-29T05:46:55;11.00;82.70
20526;DHT22;10421;49.142;9.232;2023-03-29T05:49:22;11.10;82.60
20526;DHT22;10421;49.142;9.232;2023-03-29T05:51:50;11.10;82.40
20526;DHT22;10421;49.142;9.232;2023-03-29T05:54:18;11.10;82.20
20526;DHT22;10421;49.142;9.232;2023-03-29T05:56:45;11.10;82.20
20526;DHT22;10421;49.142;9.232;2023-03-29T05:59:11;11.10;82.20
20526;DHT22;10421;49.142;9.232;2023-03-29T06:01:39;11.10;82.20
20526;DHT22;10421;49.142;9.232;2023-03-29T06:04:06;11.20;82.30
20526;DHT22;10421;49.142;9.232;2023-03-29T06:06:33;11.20;82.20
20526;DHT22;10421;49.142;9.232;2023-03-29T06:09:00;11.20;82.20
20526;DHT22;10421;49.142;9.232;2023-03-29T06:11:28;11.20;82.00
20526;DHT22;10421;49.142;9.232;2023-03-29T06:13:56;11.20;81.60
20526;DHT22;10421;49.142;9.232;2023-03-29T06:16:22;11.10;81.80
20526;DHT22;10421;49.142;9.232;2023-03-29T06:18:49;11.10;81.80
20526;DHT22;10421;49.142;9.232;2023-03-29T06:21:16;11.10;82.00
20526;DHT22;10421;49.142;9.232;2023-03-29T06:23:43;11.10;82.20
20526;DHT22;10421;49.142;9.232;2023-03-29T06:26:10;11.20;82.30
20526;DHT22;10421;49.142;9.232;2023-03-29T06:28:38;11.20;82.30
20526;DHT22;10421;49.142;9.232;2023-03-29T06:31:06;11.20;82.40
20526;DHT22;10421;49.142;9.232;2023-03-29T06:33:34;11.20;82.50
20526;DHT22;10421;49.142;9.232;2023-03-29T06:36:02;11.30;82.80
20526;DHT22;10421;49.142;9.232;2023-03-29T06:38:30;11.30;82.90
20526;DHT22;10421;49.142;9.232;2023-03-29T06:41:00;11.30;82.90
20526;DHT22;10421;49.142;9.232;2023-03-29T06:43:27;11.40;83.00
20526;DHT22;10421;49.142;9.232;2023-03-29T06:45:55;11.50;83.00
20526;DHT22;10421;49.142;9.232;2023-03-29T06:48:22;11.50;83.20
20526;DHT22;10421;49.142;9.232;2023-03-29T06:50:49;11.50;83.20
20526;DHT22;10421;49.142;9.232;2023-03-29T06:53:16;11.40;83.40
20526;DHT22;10421;49.142;9.232;2023-03-29T06:55:43;11.40;83.80
20526;DHT22;10421;49.142;9.232;2023-03-29T06:58:10;11.40;83.60
20526;DHT22;10421;49.142;9.232;2023-03-29T07:00:37;11.50;83.50
20526;DHT22;10421;49.142;9.232;2023-03-29T07:03:06;11.60;83.40
20526;DHT22;10421;49.142;9.232;2023-03-29T07:05:35;11.60;83.30
20526;DHT22;10421;49.142;9.232;2023-03-29T07:08:05;11.50;83.20
20526;DHT22;10421;49.142;9.232;2023-03-29T07:10:40;11.60;83.20
20526;DHT22;10421;49.142;9.232;2023-03-29T07:13:08;11.50;82.80
20526;DHT22;10421;49.142;9.232;2023-03-29T07:15:36;11.60;82.80
20526;DHT22;10421;49.142;9.232;2023-03-29T07:18:05;11.60;82.80
20526;DHT22;10421;49.142;9.232;2023-03-29T07:20:32;11.60;82.40
20526;DHT22;10421;49.142;9.232;2023-03-29T07:22:59;11.60;82.00
20526;DHT22;10421;49.142;9.232;2023-03-29T07:25:26;11.60;82.10
20526;DHT22;10421;49.142;9.232;2023-03-29T07:27:54;11.60;82.40
20526;DHT22;10421;49.142;9.232;2023-03-29T07:30:23;11.60;81.90
20526;DHT22;10421;49.142;9.232;2023-03-29T07:32:52;11.50;82.40
20526;DHT22;10421;49.142;9.232;2023-03-29T07:35:21;11.40;82.40
20526;DHT22;10421;49.142;9.232;2023-03-29T07:37:49;11.40;82.90
20526;DHT22;10421;49.142;9.232;2023-03-29T07:40:17;11.50;82.50
20526;DHT22;10421;49.142;9.232;2023-03-29T07:42:48;11.50;81.90
20526;DHT22;10421;49.142;9.232;2023-03-29T07:45:16;11.50;81.90
20526;DHT22;10421;49.142;9.232;2023-03-29T07:47:45;11.50;82.50
20526;DHT22;10421;49.142;9.232;2023-03-29T07:50:12;11.60;82.60
20526;DHT22;10421;49.142;9.232;2023-03-29T07:52:40;11.60;82.20
20526;DHT22;10421;49.142;9.232;2023-03-29T07:55:09;11.70;82.20
20526;DHT22;10421;49.142;9.232;2023-03-29T07:57:36;11.70;82.10
20526;DHT22;10421;49.142;9.232;2023-03-29T08:00:04;11.70;82.30
20526;DHT22;10421;49.142;9.232;2023-03-29T08:02:37;11.80;82.60
20526;DHT22;10421;49.142;9.232;2023-03-29T08:05:05;11.80;82.60
20526;DHT22;10421;49.142;9.232;2023-03-29T08:07:32;11.80;82.50
20526;DHT22;10421;49.142;9.232;2023-03-29T08:10:00;11.60;82.70
20526;DHT22;10421;49.142;9.232;2023-03-29T08:12:27;11.70;83.00
20526;DHT22;10421;49.142;9.232;2023-03-29T08:14:54;11.80;82.60
20526;DHT22;10421;49.142;9.232;2023-03-29T08:17:21;11.80;82.60
20526;DHT22;10421;49.142;9.232;2023-03-29T08:19:48;11.80;82.60
20526;DHT22;10421;49.142;9.232;2023-03-29T08:22:15;11.90;82.70
20526;DHT22;10421;49.142;9.232;2023-03-29T08:24:42;11.90;82.60
20526;DHT22;10421;49.142;9.232;2023-03-29T08:27:10;11.90;82.80
20526;DHT22;10421;49.142;9.232;2023-03-29T08:29:37;11.90;82.70
20526;DHT22;10421;49.142;9.232;2023-03-29T08:32:04;12.00;82.60
20526;DHT22;10421;49.142;9.232;2023-03-29T08:34:41;12.00;82.30
20526;DHT22;10421;49.142;9.232;2023-03-29T08:37:14;12.10;82.30
20526;DHT22;10421;49.142;9.232;2023-03-29T08:39:41;12.00;82.20
20526;DHT22;10421;49.142;9.232;2023-03-29T08:42:22;12.10;82.10
20526;DHT22;10421;49.142;9.232;2023-03-29T08:45:00;12.10;81.70
20526;DHT22;10421;49.142;9.232;2023-03-29T08:47:35;12.10;82.10
20526;DHT22;10421;49.142;9.232;2023-03-29T08:50:07;12.10;81.50
20526;DHT22;10421;49.142;9.232;2023-03-29T08:52:37;12.10;81.40
20526;DHT22;10421;49.142;9.232;2023-03-29T08:55:10;12.20;81.40
20526;DHT22;10421;49.142;9.232;2023-03-29T08:57:44;12.20;81.40
20526;DHT22;10421;49.142;9.232;2023-03-29T09:00:19;12.20;80.50
20526;DHT22;10421;49.142;9.232;2023-03-29T09:02:48;12.20;80.30
20526;DHT22;10421;49.142;9.232;2023-03-29T09:05:21;12.20;80.10
20526;DHT22;10421;49.142;9.232;2023-03-29T09:07:50;12.30;80.00
20526;DHT22;10421;49.142;9.232;2023-03-29T09:10:20;12.30;79.60
20526;DHT22;10421;49.142;9.232;2023-03-29T09:13:01;12.40;79.80
20526;DHT22;10421;49.142;9.232;2023-03-29T09:15:39;12.50;79.70
20526;DHT22;10421;49.142;9.232;2023-03-29T09:18:13;12.60;79.80
20526;DHT22;10421;49.142;9.232;2023-03-29T09:20:52;12.60;79.80
20526;DHT22;10421;49.142;9.232;2023-03-29T09:23:32;12.60;79.80
20526;DHT22;10421;49.142;9.232;2023-03-29T09:26:09;12.70;80.00
20526;DHT22;10421;49.142;9.232;2023-03-29T09:28:45;12.80;80.00
20526;DHT22;10421;49.142;9.232;2023-03-29T09:31:20;12.80;80.10
20526;DHT22;10421;49.142;9.232;2023-03-29T09:33:52;12.90;80.10
20526;DHT22;10421;49.142;9.232;2023-03-29T09:36:24;13.00;80.10
20526;DHT22;10421;49.142;9.232;2023-03-29T09:38:51;13.10;80.20
20526;DHT22;10421;49.142;9.232;2023-03-29T09:41:21;13.20;80.30
20526;DHT22;10421;49.142;9.232;2023-03-29T09:43:53;13.20;80.30
20526;DHT22;10421;49.142;9.232;2023-03-29T09:46:24;13.10;80.50
20526;DHT22;10421;49.142;9.232;2023-03-29T09:48:53;13.20;80.70
20526;DHT22;10421;49.142;9.232;2023-03-29T09:51:23;13.30;80.40
20526;DHT22;10421;49.142;9.232;2023-03-29T09:53:50;13.40;80.00
20526;DHT22;10421;49.142;9.232;2023-03-29T09:56:17;13.40;79.80
20526;DHT22;10421;49.142;9.232;2023-03-29T09:58:47;13.60;79.70
20526;DHT22;10421;49.142;9.232;2023-03-29T10:01:15;13.50;79.20
20526;DHT22;10421;49.142;9.232;2023-03-29T10:03:47;13.60;79.30
20526;DHT22;10421;49.142;9.232;2023-03-29T10:06:15;13.80;78.90
20526;DHT22;10421;49.142;9.232;2023-03-29T10:08:49;14.00;77.90
20526;DHT22;10421;49.142;9.232;2023-03-29T10:11:20;14.10;77.20
20526;DHT22;10421;49.142;9.232;2023-03-29T10:13:50;14.20;77.10
20526;DHT22;10421;49.142;9.232;2023-03-29T10:16:21;14.30;76.50
20526;DHT22;10421;49.142;9.232;2023-03-29T10:18:49;14.30;75.70
20526;DHT22;10421;49.142;9.232;2023-03-29T10:21:17;14.40;75.10
20526;DHT22;10421;49.142;9.232;2023-03-29T10:23:46;14.50;76.20
20526;DHT22;10421;49.142;9.232;2023-03-29T10:26:21;14.50;74.90
20526;DHT22;10421;49.142;9.232;2023-03-29T10:28:50;14.60;74.70
20526;DHT22;10421;49.142;9.232;2023-03-29T10:31:21;14.60;74.40
20526;DHT22;10421;49.142;9.232;2023-03-29T10:33:52;14.70;73.40
20526;DHT22;10421;49.142;9.232;2023-03-29T10:36:20;14.70;73.40
20526;DHT22;10421;49.142;9.232;2023-03-29T10:38:49;14.90;73.30
20526;DHT22;10421;49.142;9.232;2023-03-29T10:41:17;15.00;72.90
20526;DHT22;10421;49.142;9.232;2023-03-29T10:43:50;15.10;72.30
20526;DHT22;10421;49.142;9.232;2023-03-29T10:46:21;15.30;71.70
20526;DHT22;10421;49.142;9.232;2023-03-29T10:48:49;15.60;71.40
20526;DHT22;10421;49.142;9.232;2023-03-29T10:51:17;15.70;70.60
20526;DHT22;10421;49.142;9.232;2023-03-29T10:53:44;15.80;70.80
20526;DHT22;10421;49.142;9.232;2023-03-29T10:56:28;15.90;70.00
20526;DHT22;10421;49.142;9.232;2023-03-29T10:59:18;15.90;69.60
20526;DHT22;10421;49.142;9.232;2023-03-29T11:02:01;15.80;69.10
20526;DHT22;10421;49.142;9.232;2023-03-29T11:04:36;16.00;69.00
20526;DHT22;10421;49.142;9.232;2023-03-29T11:07:21;16.10;68.90
20526;DHT22;10421;49.142;9.232;2023-03-29T11:09:59;16.10;68.50
20526;DHT22;10421;49.142;9.232;2023-03-29T11:12:36;16.30;68.90
20526;DHT22;10421;49.142;9.232;2023-03-29T11:15:17;16.30;68.10
20526;DHT22;10421;49.142;9.232;2023-03-29T11:17:54;16.50;68.10
20526;DHT22;10421;49.142;9.232;2023-03-29T11:20:29;16.60;68.00
20526;DHT22;10421;49.142;9.232;2023-03-29T11:23:16;16.90;68.10
20526;DHT22;10421;49.142;9.232;2023-03-29T11:25:52;17.10;65.90
20526;DHT22;10421;49.142;9.232;2023-03-29T11:28:28;16.90;64.90
20526;DHT22;10421;49.142;9.232;2023-03-29T11:31:05;17.10;65.90
20526;DHT22;10421;49.142;9.232;2023-03-29T11:33:48;17.20;64.30
20526;DHT22;10421;49.142;9.232;2023-03-29T11:36:22;17.10;63.70
20526;DHT22;10421;49.142;9.232;2023-03-29T11:39:00;17.10;64.10
20526;DHT22;10421;49.142;9.232;2023-03-29T11:41:31;17.20;64.10
20526;DHT22;10421;49.142;9.232;2023-03-29T11:44:02;17.10;64.00
20526;DHT22;10421;49.142;9.232;2023-03-29T11:46:36;17.20;64.20
20526;DHT22;10421;49.142;9.232;2023-03-29T11:49:13;17.10;64.30
20526;DHT22;10421;49.142;9.232;2023-03-29T11:51:44;17.10;64.20
20526;DHT22;10421;49.142;9.232;2023-03-29T11:54:19;17.30;64.20
20526;DHT22;10421;49.142;9.232;2023-03-29T11:56:53;17.50;64.00
20526;DHT22;10421;49.142;9.232;2023-03-29T11:59:25;17.60;63.10
20526;DHT22;10421;49.142;9.232;2023-03-29T12:02:00;17.50;62.90
20526;DHT22;10421;49.142;9.232;2023-03-29T12:04:33;17.50;62.70
20526;DHT22;10421;49.142;9.232;2023-03-29T12:07:08;17.60;63.00
20526;DHT22;10421;49.142;9.232;2023-03-29T12:09:40;17.60;63.10
20526;DHT22;10421;49.142;9.232;2023-03-29T12:12:14;17.60;63.20
20526;DHT22;10421;49.142;9.232;2023-03-29T12:14:55;17.60;63.10
20526;DHT22;10421;49.142;9.232;2023-03-29T12:17:28;17.70;63.30
20526;DHT22;10421;49.142;9.232;2023-03-29T12:20:09;18.00;63.60
20526;DHT22;10421;49.142;9.232;2023-03-29T12:22:44;18.20;63.10
20526;DHT22;10421;49.142;9.232;2023-03-29T12:25:20;18.40;63.10
20526;DHT22;10421;49.142;9.232;2023-03-29T12:27:58;18.50;63.00
20526;DHT22;10421;49.142;9.232;2023-03-29T12:30:46;18.50;63.30
20526;DHT22;10421;49.142;9.232;2023-03-29T12:33:34;18.60;62.70
20526;DHT22;10421;49.142;9.232;2023-03-29T12:36:20;18.60;63.00
20526;DHT22;10421;49.142;9.232;2023-03-29T12:38:51;18.80;62.90
20526;DHT22;10421;49.142;9.232;2023-03-29T12:41:19;18.80;62.30
20526;DHT22;10421;49.142;9.232;2023-03-29T12:43:47;19.00;62.50
20526;DHT22;10421;49.142;9.232;2023-03-29T12:46:17;19.10;62.10
20526;DHT22;10421;49.142;9.232;2023-03-29T12:48:48;19.20;61.90
20526;DHT22;10421;49.142;9.232;2023-03-29T12:51:18;19.10;61.60
20526;DHT22;10421;49.142;9.232;2023-03-29T12:53:49;19.00;61.90
20526;DHT22;10421;49.142;9.232;2023-03-29T12:56:19;19.00;61.60
20526;DHT22;10421;49.142;9.232;2023-03-29T12:58:54;19.00;61.40
20526;DHT22;10421;49.142;9.232;2023-03-29T13:01:27;18.90;62.30
20526;DHT22;10421;49.142;9.232;2023-03-29T13:04:15;18.80;62.30
20526;DHT22;10421;49.142;9.232;2023-03-29T13:06:56;18.80;62.70
20526;DHT22;10421;49.142;9.232;2023-03-29T13:09:29;18.70;62.40
20526;DHT22;10421;49.142;9.232;2023-03-29T13:12:05;18.60;62.60
20526;DHT22;10421;49.142;9.232;2023-03-29T13:14:34;18.70;62.60
20526;DHT22;10421;49.142;9.232;2023-03-29T13:17:03;18.70;62.40
20526;DHT22;10421;49.142;9.232;2023-03-29T13:19:34;18.50;62.80
20526;DHT22;10421;49.142;9.232;2023-03-29T13:22:14;18.50;63.10
20526;DHT22;10421;49.142;9.232;2023-03-29T13:24:54;18.50;62.70
20526;DHT22;10421;49.142;9.232;2023-03-29T13:27:33;18.60;62.70
20526;DHT22;10421;49.142;9.232;2023-03-29T13:30:22;18.70;62.90
20526;DHT22;10421;49.142;9.232;2023-03-29T13:33:01;18.80;62.50
20526;DHT22;10421;49.142;9.232;2023-03-29T13:35:39;18.80;63.20
20526;DHT22;10421;49.142;9.232;2023-03-29T13:38:16;18.90;63.00
20526;DHT22;10421;49.142;9.232;2023-03-29T13:40:56;18.80;63.00
20526;DHT22;10421;49.142;9.232;2023-03-29T13:43:34;18.80;62.70
20526;DHT22;10421;49.142;9.232;2023-03-29T13:46:18;18.80;62.70
20526;DHT22;10421;49.142;9.232;2023-03-29T13:48:56;18.80;62.80
20526;DHT22;10421;49.142;9.232;2023-03-29T13:51:35;18.90;62.60
20526;DHT22;10421;49.142;9.232;2023-03-29T13:54:14;18.90;62.60
20526;DHT22;10421;49.142;9.232;2023-03-29T13:57:00;18.90;63.00
20526;DHT22;10421;49.142;9.232;2023-03-29T13:59:34;18.80;61.70
20526;DHT22;10421;49.142;9.232;2023-03-29T14:02:04;18.60;61.40
20526;DHT22;10421;49.142;9.232;2023-03-29T14:04:36;18.50;61.30
20526;DHT22;10421;49.142;9.232;2023-03-29T14:07:04;18.50;61.50
20526;DHT22;10421;49.142;9.232;2023-03-29T14:09:39;18.50;62.10
20526;DHT22;10421;49.142;9.232;2023-03-29T14:12:08;18.40;62.60
20526;DHT22;10421;49.142;9.232;2023-03-29T14:14:36;18.20;63.80
20526;DHT22;10421;49.142;9.232;2023-03-29T14:17:06;18.20;64.30
20526;DHT22;10421;49.142;9.232;2023-03-29T14:19:35;18.20;64.70
20526;DHT22;10421;49.142;9.232;2023-03-29T14:22:07;18.30;64.60
20526;DHT22;10421;49.142;9.232;2023-03-29T14:24:37;18.40;65.20
20526;DHT22;10421;49.142;9.232;2023-03-29T14:27:07;18.40;66.50
20526;DHT22;10421;49.142;9.232;2023-03-29T14:29:35;18.20;68.80
20526;DHT22;10421;49.142;9.232;2023-03-29T14:32:09;18.20;69.70
20526;DHT22;10421;49.142;9.232;2023-03-29T14:34:37;18.20;70.70
20526;DHT22;10421;49.142;9.232;2023-03-29T14:37:04;18.20;71.60
20526;DHT22;10421;49.142;9.232;2023-03-29T14:39:33;18.10;72.50
20526;DHT22;10421;49.142;9.232;2023-03-29T14:42:02;18.00;72.90
20526;DHT22;10421;49.142;9.232;2023-03-29T14:44:30;17.90;73.90
20526;DHT22;10421;49.142;9.232;2023-03-29T14:46:59;17.70;76.00
20526;DHT22;10421;49.142;9.232;2023-03-29T14:49:27;17.70;76.50
20526;DHT22;10421;49.142;9.232;2023-03-29T14:51:55;17.70;77.10
20526;DHT22;10421;49.142;9.232;2023-03-29T14:54:25;17.60;77.70
20526;DHT22;10421;49.142;9.232;2023-03-29T14:56:53;17.60;78.60
20526;DHT22;10421;49.142;9.232;2023-03-29T14:59:26;17.60;79.30
20526;DHT22;10421;49.142;9.232;2023-03-29T15:01:54;17.60;79.50
20526;DHT22;10421;49.142;9.232;2023-03-29T15:04:20;17.60;79.40
20526;DHT22;10421;49.142;9.232;2023-03-29T15:06:47;17.70;79.90
20526;DHT22;10421;49.142;9.232;2023-03-29T15:09:22;17.70;79.80
20526;DHT22;10421;49.142;9.232;2023-03-29T15:11:51;17.70;80.20
20526;DHT22;10421;49.142;9.232;2023-03-29T15:14:19;17.50;81.20
20526;DHT22;10421;49.142;9.232;2023-03-29T15:16:50;17.60;81.40
20526;DHT22;10421;49.142;9.232;2023-03-29T15:19:20;17.50;81.70
20526;DHT22;10421;49.142;9.232;2023-03-29T15:21:49;17.60;81.40
20526;DHT22;10421;49.142;9.232;2023-03-29T15:24:21;17.70;81.00
20526;DHT22;10421;49.142;9.232;2023-03-29T15:26:59;17.60;81.10
20526;DHT22;10421;49.142;9.232;2023-03-29T15:29:35;17.60;80.80
20526;DHT22;10421;49.142;9.232;2023-03-29T15:32:04;17.50;80.80
20526;DHT22;10421;49.142;9.232;2023-03-29T15:34:32;17.50;80.90
20526;DHT22;10421;49.142;9.232;2023-03-29T15:37:00;17.60;80.50
20526;DHT22;10421;49.142;9.232;2023-03-29T15:39:28;17.60;79.70
20526;DHT22;10421;49.142;9.232;2023-03-29T15:41:56;17.50;79.60
20526;DHT22;10421;49.142;9.232;2023-03-29T15:44:26;17.60;79.50
20526;DHT22;10421;49.142;9.232;2023-03-29T15:46:53;17.70;79.20
20526;DHT22;10421;49.142;9.232;2023-03-29T15:49:23;17.70;78.70
20526;DHT22;10421;49.142;9.232;2023-03-29T15:51:52;17.80;78.20